Time;durP1;ratioP1;P1;durP2;ratioP2;P2;SDS_P1;SDS_P2;PMS_P1;PMS_P2;Temp;Humidity;BMP_temperature;BMP_pressure;BME280_temperature;BME280_humidity;BME280_pressure;Samples;Min_cycle;Max_cycle;Signal;HPM_P1;HPM_P2
2023/12/25 00:01:03;;;;;;;0.10;0.10;;;12.10;99.90;;;;;;5051645;28;20060;-70
2023/12/25 00:03:30;;;;;;;0.10;0.10;;;12.20;99.90;;;;;;5054690;28;20036;-72
2023/12/25 00:05:56;;;;;;;3.08;1.35;;;11.90;99.90;;;;;;5104253;28;20405;-71
2023/12/25 00:08:21;;;;;;;0.95;0.85;;;12.00;99.90;;;;;;5052925;28;20053;-71
2023/12/25 00:10:47;;;;;;;0.20;0.20;;;11.90;99.90;;;;;;5071905;28;20392;-70
2023/12/25 00:13:13;;;;;;;0.35;0.30;;;11.90;99.90;;;;;;5103583;28;20049;-70
2023/12/25 00:15:38;;;;;;;0.15;0.08;;;11.90;99.90;;;;;;5070190;28;20052;-73
2023/12/25 00:18:04;;;;;;;0.35;0.30;;;12.10;99.90;;;;;;5070614;28;20543;-70
2023/12/25 00:20:30;;;;;;;1.70;0.57;;;12.00;99.90;;;;;;5059697;28;20048;-73
2023/12/25 00:22:56;;;;;;;0.40;0.32;;;11.80;99.90;;;;;;5051484;28;20049;-71
2023/12/25 00:25:21;;;;;;;0.10;0.10;;;11.80;99.90;;;;;;5051493;28;20045;-71
2023/12/25 00:27:47;;;;;;;0.73;0.60;;;11.80;99.90;;;;;;5068272;28;20135;-70
2023/12/25 00:30:14;;;;;;;0.20;0.20;;;11.80;99.90;;;;;;5053021;28;20044;-71
2023/12/25 00:32:39;;;;;;;0.40;0.40;;;12.00;99.90;;;;;;5070658;28;20044;-73
2023/12/25 00:35:05;;;;;;;0.20;0.20;;;12.00;99.90;;;;;;5069872;28;20044;-75
2023/12/25 00:37:31;;;;;;;0.17;0.17;;;11.80;99.90;;;;;;5052768;28;20045;-71
2023/12/25 00:39:56;;;;;;;0.20;0.20;;;11.90;99.90;;;;;;5051669;28;20085;-73
2023/12/25 00:42:22;;;;;;;0.10;0.10;;;11.70;99.90;;;;;;5052613;28;20090;-71
2023/12/25 00:44:48;;;;;;;2.72;0.40;;;12.00;99.90;;;;;;5054474;28;20102;-70
2023/12/25 00:47:14;;;;;;;;;;;11.70;99.90;;;;;;5054480;28;20049;-71
2023/12/25 00:49:39;;;;;;;0.25;0.25;;;11.80;99.90;;;;;;5054268;28;19924;-72
2023/12/25 00:52:05;;;;;;;0.25;0.25;;;11.60;99.90;;;;;;5054981;28;20107;-72
2023/12/25 00:54:31;;;;;;;0.10;0.10;;;11.90;99.90;;;;;;5052249;28;20056;-71
2023/12/25 00:56:58;;;;;;;;;;;12.10;99.90;;;;;;5055070;28;20056;-72
2023/12/25 00:59:23;;;;;;;0.75;0.40;;;11.90;99.90;;;;;;5054533;28;20379;-71
2023/12/25 01:01:49;;;;;;;2.13;0.28;;;12.20;99.90;;;;;;5055514;28;20044;-73
2023/12/25 01:04:15;;;;;;;0.38;0.38;;;11.80;99.90;;;;;;5037671;28;20079;-73
2023/12/25 01:06:41;;;;;;;0.10;0.10;;;12.00;99.90;;;;;;5054976;28;20045;-73
2023/12/25 01:09:07;;;;;;;0.15;0.15;;;12.00;99.90;;;;;;5065871;28;20127;-71
2023/12/25 01:11:38;;;;;;;0.13;0.13;;;11.90;99.90;;;;;;5060301;28;20040;-70
2023/12/25 01:14:04;;;;;;;0.43;0.43;;;11.80;99.90;;;;;;5063063;28;20048;-72
2023/12/25 01:16:30;;;;;;;2.90;1.08;;;11.90;99.90;;;;;;5053563;28;20041;-71
2023/12/25 01:18:55;;;;;;;0.70;0.40;;;11.90;99.90;;;;;;5066081;28;20101;-73
2023/12/25 01:21:21;;;;;;;1.10;0.75;;;12.00;99.90;;;;;;5056733;28;20040;-70
2023/12/25 01:23:47;;;;;;;0.43;0.20;;;11.80;99.90;;;;;;5072783;28;20036;-73
2023/12/25 01:26:12;;;;;;;0.35;0.35;;;11.80;99.90;;;;;;5073882;28;20119;-70
2023/12/25 01:28:38;;;;;;;0.10;0.10;;;12.00;99.90;;;;;;5073300;28;20049;-73
2023/12/25 01:31:05;;;;;;;1.08;0.55;;;11.70;99.90;;;;;;5072397;28;20124;-72
2023/12/25 01:33:31;;;;;;;0.15;0.15;;;11.80;99.90;;;;;;5060913;28;20037;-73
2023/12/25 01:35:56;;;;;;;8.38;0.52;;;11.80;99.90;;;;;;5072578;28;20051;-76
2023/12/25 01:38:22;;;;;;;1.20;0.63;;;11.50;99.90;;;;;;5061554;28;20045;-72
2023/12/25 01:40:48;;;;;;;0.65;0.20;;;11.80;99.90;;;;;;5053090;28;20055;-70
2023/12/25 01:43:13;;;;;;;0.75;0.75;;;11.50;99.90;;;;;;5054255;28;20049;-71
2023/12/25 01:45:39;;;;;;;0.30;0.30;;;11.80;99.90;;;;;;5057790;28;20080;-70
2023/12/25 01:48:06;;;;;;;1.00;1.00;;;11.60;99.90;;;;;;5072794;28;20067;-76
2023/12/25 01:50:32;;;;;;;0.20;0.20;;;11.90;99.90;;;;;;5054223;28;20512;-70
2023/12/25 01:52:57;;;;;;;3.20;0.85;;;11.60;99.90;;;;;;5063946;28;20416;-74
2023/12/25 01:55:23;;;;;;;0.22;0.17;;;11.20;99.90;;;;;;5066970;28;20044;-72
2023/12/25 01:57:49;;;;;;;0.88;0.88;;;11.30;99.90;;;;;;5053060;28;20409;-71
2023/12/25 02:00:15;;;;;;;0.60;0.60;;;11.60;99.90;;;;;;5053006;28;20057;-77
2023/12/25 02:02:41;;;;;;;18.40;0.95;;;11.90;99.90;;;;;;5065323;28;20041;-70
2023/12/25 02:05:08;;;;;;;0.43;0.43;;;11.40;99.90;;;;;;5072905;28;20047;-74
2023/12/25 02:07:35;;;;;;;1.10;1.02;;;11.10;99.90;;;;;;5072310;28;20048;-72
2023/12/25 02:10:01;;;;;;;0.30;0.30;;;11.60;99.90;;;;;;5072665;28;20403;-71
2023/12/25 02:12:26;;;;;;;0.38;0.38;;;11.30;99.90;;;;;;5071967;28;20044;-72
2023/12/25 02:14:52;;;;;;;0.70;0.45;;;11.50;99.90;;;;;;5072211;28;20080;-71
2023/12/25 02:17:18;;;;;;;5.47;0.63;;;11.10;99.90;;;;;;5073533;28;20052;-73
2023/12/25 02:19:45;;;;;;;1.30;0.88;;;11.50;99.90;;;;;;5072248;28;20059;-74
2023/12/25 02:22:13;;;;;;;1.30;0.73;;;11.80;99.90;;;;;;5073038;28;20123;-70
2023/12/25 02:24:49;;;;;;;0.75;0.75;;;11.20;99.90;;;;;;5070329;28;20028;-71
2023/12/25 02:27:14;;;;;;;2.72;2.53;;;11.40;99.90;;;;;;5072646;28;20052;-72
2023/12/25 02:29:40;;;;;;;0.47;0.47;;;11.60;99.90;;;;;;5046452;28;20549;-72
2023/12/25 02:32:06;;;;;;;0.30;0.30;;;11.50;99.90;;;;;;5072236;28;20053;-70
2023/12/25 02:34:31;;;;;;;0.20;0.20;;;11.40;99.90;;;;;;5073496;28;20093;-73
2023/12/25 02:36:57;;;;;;;1.92;1.48;;;11.20;99.90;;;;;;5071433;28;20049;-70
2023/12/25 02:39:23;;;;;;;0.20;0.20;;;11.40;99.90;;;;;;5053528;28;20128;-70
2023/12/25 02:41:49;;;;;;;3.72;1.48;;;;;;;;;;5051658;28;20056;-71
2023/12/25 02:44:16;;;;;;;0.85;0.60;;;11.50;99.90;;;;;;5053149;28;20053;-70
2023/12/25 02:46:42;;;;;;;0.52;0.52;;;11.40;99.90;;;;;;5052180;28;20485;-71
2023/12/25 02:49:08;;;;;;;0.25;0.25;;;11.60;99.90;;;;;;5065647;28;20062;-70
2023/12/25 02:51:33;;;;;;;0.10;0.10;;;11.30;99.90;;;;;;5053423;28;20060;-70
2023/12/25 02:53:59;;;;;;;0.10;0.10;;;11.40;99.90;;;;;;5071666;28;20049;-70
2023/12/25 02:56:24;;;;;;;0.75;0.43;;;11.20;99.90;;;;;;5072363;28;20503;-70
2023/12/25 02:58:50;;;;;;;0.20;0.20;;;11.00;99.90;;;;;;5072443;28;20109;-72
2023/12/25 03:01:16;;;;;;;0.30;0.30;;;11.30;99.90;;;;;;5059430;28;20126;-71
2023/12/25 03:03:41;;;;;;;0.20;0.20;;;11.30;99.90;;;;;;5051163;28;20041;-70
2023/12/25 03:06:08;;;;;;;0.35;0.35;;;11.30;99.90;;;;;;5035236;28;20053;-70
2023/12/25 03:08:34;;;;;;;3.70;0.32;;;11.00;99.90;;;;;;5053577;28;20053;-70
2023/12/25 03:11:00;;;;;;;0.10;0.10;;;11.10;99.90;;;;;;5051881;28;20044;-69
2023/12/25 03:13:26;;;;;;;0.95;0.90;;;11.30;99.90;;;;;;5052061;28;20122;-71
2023/12/25 03:15:51;;;;;;;0.98;0.50;;;11.20;99.90;;;;;;5052948;28;20045;-72
2023/12/25 03:18:17;;;;;;;1.48;1.00;;;10.90;99.90;;;;;;5051260;28;20508;-73
2023/12/25 03:20:42;;;;;;;2.42;1.17;;;11.20;99.90;;;;;;5052458;28;20494;-70
2023/12/25 03:23:08;;;;;;;0.47;0.47;;;11.20;99.90;;;;;;5052119;28;20056;-74
2023/12/25 03:25:34;;;;;;;4.60;0.57;;;10.90;99.90;;;;;;5051610;28;20049;-75
2023/12/25 03:27:59;;;;;;;0.35;0.35;;;11.30;99.90;;;;;;5035256;28;20052;-70
2023/12/25 03:30:25;;;;;;;0.20;0.20;;;10.90;99.90;;;;;;5068304;28;20056;-74
2023/12/25 03:32:51;;;;;;;0.30;0.30;;;11.10;99.90;;;;;;5035019;28;20048;-73
2023/12/25 03:35:17;;;;;;;0.10;0.10;;;11.10;99.90;;;;;;5051237;28;20053;-71
2023/12/25 03:37:43;;;;;;;0.10;0.10;;;10.80;99.90;;;;;;5052364;28;20524;-71
2023/12/25 03:40:09;;;;;;;1.65;1.38;;;10.90;99.90;;;;;;5050682;28;20041;-71
2023/12/25 03:42:35;;;;;;;1.25;0.52;;;11.20;99.90;;;;;;5052016;28;20045;-70
2023/12/25 03:45:00;;;;;;;0.30;0.30;;;11.00;99.90;;;;;;5052150;28;20049;-70
2023/12/25 03:47:28;;;;;;;0.10;0.10;;;11.00;99.90;;;;;;5057954;28;20055;-75
2023/12/25 03:49:54;;;;;;;1.17;0.80;;;10.70;99.90;;;;;;5059025;28;20053;-72
2023/12/25 03:52:20;;;;;;;0.20;0.20;;;10.90;99.90;;;;;;5050815;28;20179;-73
2023/12/25 03:54:45;;;;;;;0.50;0.50;;;10.80;99.90;;;;;;5033963;28;20127;-71
2023/12/25 03:57:11;;;;;;;3.00;2.72;;;11.20;99.90;;;;;;5050395;28;20441;-71
2023/12/25 03:59:39;;;;;;;0.38;0.38;;;10.90;99.90;;;;;;5050422;28;20489;-73
2023/12/25 04:02:05;;;;;;;0.98;0.93;;;10.70;99.90;;;;;;5056765;28;20048;-73
2023/12/25 04:04:30;;;;;;;1.80;0.65;;;11.10;99.90;;;;;;5070215;28;20044;-75
2023/12/25 04:06:57;;;;;;;0.28;0.28;;;11.00;99.90;;;;;;5070490;28;20048;-73
2023/12/25 04:09:23;;;;;;;0.40;0.35;;;;;;;;;;5070307;28;20044;-71
2023/12/25 04:11:49;;;;;;;0.20;0.20;;;10.60;99.90;;;;;;5102680;28;20086;-69
2023/12/25 04:14:14;;;;;;;0.20;0.20;;;11.20;99.90;;;;;;5069412;28;20044;-76
2023/12/25 04:16:40;;;;;;;3.05;1.85;;;11.10;99.90;;;;;;5051800;28;20056;-74
2023/12/25 04:19:06;;;;;;;0.20;0.20;;;11.20;99.90;;;;;;5069198;28;20151;-73
2023/12/25 04:21:32;;;;;;;0.30;0.30;;;11.00;99.90;;;;;;5070247;28;20083;-72
2023/12/25 04:23:59;;;;;;;0.10;0.10;;;10.70;99.90;;;;;;5069667;28;20043;-73
2023/12/25 04:26:25;;;;;;;1.05;0.60;;;11.00;99.90;;;;;;5070647;28;20040;-72
2023/12/25 04:28:52;;;;;;;0.52;0.52;;;11.10;99.90;;;;;;5070573;28;20048;-76
2023/12/25 04:31:18;;;;;;;0.30;0.30;;;11.10;99.90;;;;;;5057530;28;20041;-71
2023/12/25 04:33:44;;;;;;;1.25;0.77;;;11.40;99.90;;;;;;5070137;28;20036;-72
2023/12/25 04:36:11;;;;;;;0.10;0.10;;;11.40;99.90;;;;;;5103499;28;20044;-71
2023/12/25 04:38:37;;;;;;;0.82;0.82;;;10.80;99.90;;;;;;5069290;28;20052;-71
2023/12/25 04:41:03;;;;;;;0.20;0.20;;;11.30;99.90;;;;;;5103549;28;20045;-71
2023/12/25 04:43:29;;;;;;;0.30;0.30;;;11.40;99.90;;;;;;5070129;28;20041;-71
2023/12/25 04:45:55;;;;;;;1.15;1.08;;;11.20;99.90;;;;;;5051583;28;20059;-74
2023/12/25 04:48:20;;;;;;;0.20;0.20;;;10.80;99.90;;;;;;5050496;28;20071;-72
2023/12/25 04:50:49;;;;;;;1.65;0.50;;;11.30;99.90;;;;;;5034292;28;20056;-71
2023/12/25 04:53:15;;;;;;;1.48;1.38;;;11.00;99.90;;;;;;5050718;28;20123;-70
2023/12/25 04:55:41;;;;;;;0.60;0.60;;;10.90;99.90;;;;;;5058686;28;20187;-70
2023/12/25 04:58:07;;;;;;;1.10;0.63;;;11.20;99.90;;;;;;5070932;28;20483;-71
2023/12/25 05:00:33;;;;;;;0.20;0.20;;;10.90;99.90;;;;;;5063599;28;20061;-71
2023/12/25 05:02:59;;;;;;;0.35;0.35;;;11.00;99.90;;;;;;5064370;28;20524;-70
2023/12/25 05:05:25;;;;;;;;;;;11.10;99.90;;;;;;5050230;28;20037;-70
2023/12/25 05:07:51;;;;;;;0.30;0.30;;;11.00;99.90;;;;;;5049814;28;19927;-71
2023/12/25 05:10:17;;;;;;;0.45;0.45;;;10.60;99.90;;;;;;5040444;28;20170;-76
2023/12/25 05:12:43;;;;;;;0.57;0.47;;;10.80;99.90;;;;;;5069372;28;20079;-70
2023/12/25 05:15:09;;;;;;;0.70;0.57;;;11.20;99.90;;;;;;5070969;28;20448;-70
2023/12/25 05:17:35;;;;;;;0.57;0.57;;;11.20;99.90;;;;;;5069799;28;20051;-71
2023/12/25 05:20:01;;;;;;;3.63;0.73;;;;;;;;;;5070737;28;20044;-71
2023/12/25 05:22:26;;;;;;;6.32;0.80;;;11.10;99.90;;;;;;5068448;28;20135;-70
2023/12/25 05:24:52;;;;;;;0.70;0.70;;;10.90;99.90;;;;;;5069447;28;20467;-73
2023/12/25 05:27:18;;;;;;;0.20;0.20;;;10.80;99.90;;;;;;5067855;28;20102;-71
2023/12/25 05:29:43;;;;;;;23.65;1.08;;;10.80;99.90;;;;;;5071660;28;20110;-70
2023/12/25 05:32:09;;;;;;;0.20;0.20;;;11.40;99.90;;;;;;5072618;28;20063;-71
2023/12/25 05:34:35;;;;;;;0.10;0.10;;;10.70;99.90;;;;;;5105324;28;20040;-71
2023/12/25 05:37:00;;;;;;;0.10;0.10;;;10.90;99.90;;;;;;5071592;28;20044;-71
2023/12/25 05:39:26;;;;;;;5.30;0.43;;;10.60;99.90;;;;;;5072131;28;20055;-71
2023/12/25 05:41:53;;;;;;;0.30;0.30;;;10.60;99.90;;;;;;5072092;28;20048;-69
2023/12/25 05:44:19;;;;;;;2.03;0.38;;;10.70;99.90;;;;;;5059918;28;20533;-71
2023/12/25 05:46:44;;;;;;;0.13;0.13;;;10.80;99.90;;;;;;5072194;28;20049;-74
2023/12/25 05:49:10;;;;;;;0.60;0.60;;;10.20;99.90;;;;;;5055802;28;20048;-71
2023/12/25 05:51:36;;;;;;;0.57;0.28;;;10.60;99.90;;;;;;5071107;28;20060;-76
2023/12/25 05:54:01;;;;;;;2.25;2.05;;;10.50;99.90;;;;;;5072367;28;20052;-76
2023/12/25 05:56:27;;;;;;;0.63;0.55;;;10.50;99.90;;;;;;5105420;28;20545;-72
2023/12/25 05:58:53;;;;;;;0.20;0.20;;;10.50;99.90;;;;;;5072327;28;20060;-70
2023/12/25 06:01:19;;;;;;;2.33;0.95;;;10.50;99.90;;;;;;5060045;28;20094;-72
2023/12/25 06:03:44;;;;;;;0.20;0.20;;;10.60;99.90;;;;;;5073225;28;20075;-70
2023/12/25 06:06:10;;;;;;;0.10;0.10;;;10.80;99.90;;;;;;5056071;28;20138;-70
2023/12/25 06:08:36;;;;;;;0.20;0.20;;;10.50;99.90;;;;;;5072704;28;20056;-70
2023/12/25 06:11:02;;;;;;;0.47;0.28;;;10.50;99.90;;;;;;5072483;28;20053;-70
2023/12/25 06:13:28;;;;;;;0.20;0.20;;;10.60;99.90;;;;;;5073220;28;20139;-71
2023/12/25 06:15:54;;;;;;;2.20;1.15;;;10.60;99.90;;;;;;5072302;28;20149;-71
2023/12/25 06:18:20;;;;;;;;;;;10.60;99.90;;;;;;5070404;28;20048;-70
2023/12/25 06:20:46;;;;;;;0.20;0.20;;;10.50;99.90;;;;;;5071854;28;19924;-70
2023/12/25 06:23:12;;;;;;;0.43;0.43;;;10.70;99.90;;;;;;5072106;28;20048;-70
2023/12/25 06:25:38;;;;;;;0.38;0.20;;;10.40;99.90;;;;;;5072844;28;20048;-70
2023/12/25 06:28:04;;;;;;;1.15;0.85;;;10.20;99.90;;;;;;5103980;28;20048;-70
2023/12/25 06:30:29;;;;;;;0.17;0.17;;;10.40;99.90;;;;;;5055326;28;20447;-70
2023/12/25 06:32:55;;;;;;;0.10;0.10;;;10.40;99.90;;;;;;5072150;28;20049;-69
2023/12/25 06:35:22;;;;;;;0.10;0.10;;;10.50;99.90;;;;;;5054818;28;20102;-70
2023/12/25 06:37:47;;;;;;;;;;;10.50;99.90;;;;;;5072219;28;20051;-70
2023/12/25 06:40:13;;;;;;;0.30;0.30;;;10.70;99.90;;;;;;5071571;28;20006;-71
2023/12/25 06:42:39;;;;;;;0.20;0.20;;;10.70;99.90;;;;;;5071513;28;20055;-71
2023/12/25 06:45:08;;;;;;;0.68;0.68;;;10.70;99.90;;;;;;5072890;28;20041;-70
2023/12/25 06:47:34;;;;;;;3.70;0.40;;;10.30;99.90;;;;;;5065196;28;20082;-70
2023/12/25 06:50:00;;;;;;;1.25;0.90;;;10.20;99.90;;;;;;5066108;28;20040;-71
2023/12/25 06:52:25;;;;;;;0.10;0.10;;;10.30;99.90;;;;;;5072451;28;20496;-74
2023/12/25 06:54:51;;;;;;;1.85;0.85;;;10.50;99.90;;;;;;5071789;28;20115;-70
2023/12/25 06:57:17;;;;;;;0.90;0.85;;;10.30;99.90;;;;;;5072220;28;20040;-69
2023/12/25 06:59:44;;;;;;;0.75;0.30;;;10.20;99.90;;;;;;5071108;28;20060;-72
2023/12/25 07:02:10;;;;;;;0.10;0.10;;;10.30;99.90;;;;;;5039700;28;20056;-71
2023/12/25 07:04:36;;;;;;;0.20;0.20;;;10.60;99.90;;;;;;5065607;28;20190;-71
2023/12/25 07:07:03;;;;;;;0.30;0.30;;;10.50;99.90;;;;;;5045470;28;20044;-70
2023/12/25 07:09:28;;;;;;;0.20;0.20;;;10.00;99.90;;;;;;5071797;28;20040;-69
2023/12/25 07:11:54;;;;;;;0.13;0.13;;;10.50;99.90;;;;;;5072462;28;20055;-70
2023/12/25 07:14:20;;;;;;;0.30;0.30;;;10.30;99.90;;;;;;5057186;28;20049;-70
2023/12/25 07:16:45;;;;;;;0.20;0.20;;;10.30;99.90;;;;;;5071190;28;20049;-71
2023/12/25 07:19:11;;;;;;;0.17;0.17;;;10.40;99.90;;;;;;5071271;28;20508;-74
2023/12/25 07:21:37;;;;;;;0.63;0.45;;;10.10;99.90;;;;;;5071795;28;20079;-70
2023/12/25 07:24:04;;;;;;;0.55;0.55;;;9.90;99.90;;;;;;5071453;28;20047;-70
2023/12/25 07:26:30;;;;;;;0.10;0.10;;;9.90;99.90;;;;;;5072206;28;20040;-70
2023/12/25 07:28:56;;;;;;;0.17;0.17;;;10.30;99.90;;;;;;5071781;28;20106;-70
2023/12/25 07:31:22;;;;;;;0.17;0.17;;;10.10;99.90;;;;;;5070966;28;20044;-70
2023/12/25 07:33:50;;;;;;;0.20;0.20;;;10.30;99.90;;;;;;5071052;28;20132;-70
2023/12/25 07:36:15;;;;;;;0.10;0.10;;;9.90;99.90;;;;;;5070328;28;20048;-70
2023/12/25 07:38:41;;;;;;;0.20;0.20;;;9.80;99.90;;;;;;5070427;28;20125;-70
2023/12/25 07:41:08;;;;;;;9.93;0.43;;;9.80;99.90;;;;;;5053695;28;20044;-70
2023/12/25 07:43:35;;;;;;;0.32;0.32;;;9.70;99.90;;;;;;5069457;28;20048;-70
2023/12/25 07:46:04;;;;;;;0.10;0.10;;;9.70;99.90;;;;;;5069792;28;20443;-70
2023/12/25 07:48:29;;;;;;;0.10;0.10;;;9.20;99.90;;;;;;5069495;28;20055;-71
2023/12/25 07:50:55;;;;;;;0.20;0.20;;;9.40;99.90;;;;;;5070696;28;20132;-70
2023/12/25 07:53:21;;;;;;;0.90;0.65;;;;;;;;;;5067632;28;20488;-71
2023/12/25 07:55:47;;;;;;;0.85;0.85;;;9.50;99.90;;;;;;5069878;28;20484;-70
2023/12/25 07:58:14;;;;;;;0.35;0.35;;;9.90;99.90;;;;;;5067809;28;20063;-70
2023/12/25 08:00:42;;;;;;;1.85;0.60;;;9.20;99.90;;;;;;5061681;28;20061;-70
2023/12/25 08:03:09;;;;;;;0.20;0.20;;;;;;;;;;5051820;28;20044;-70
2023/12/25 08:05:34;;;;;;;0.82;0.28;;;9.60;99.90;;;;;;5050731;28;20759;-71
2023/12/25 08:08:00;;;;;;;3.08;0.95;;;9.90;99.90;;;;;;5052242;28;20037;-70
2023/12/25 08:10:26;;;;;;;0.10;0.10;;;9.80;99.90;;;;;;5051555;28;20049;-70
2023/12/25 08:12:52;;;;;;;0.57;0.43;;;9.70;99.90;;;;;;5050941;28;20052;-70
2023/12/25 08:15:18;;;;;;;0.45;0.45;;;9.70;99.90;;;;;;5034168;28;20052;-69
2023/12/25 08:17:44;;;;;;;0.10;0.10;;;9.90;99.90;;;;;;5044797;28;20049;-70
2023/12/25 08:20:10;;;;;;;0.20;0.20;;;10.00;99.90;;;;;;5060011;28;20072;-70
2023/12/25 08:22:35;;;;;;;0.17;0.17;;;9.80;99.90;;;;;;5058037;28;20543;-70
2023/12/25 08:25:03;;;;;;;0.20;0.20;;;9.90;99.90;;;;;;5060306;28;20041;-71
2023/12/25 08:27:28;;;;;;;0.40;0.40;;;9.80;99.90;;;;;;5059518;28;20489;-70
2023/12/25 08:29:54;;;;;;;0.32;0.32;;;9.90;99.90;;;;;;5058888;28;20078;-69
2023/12/25 08:32:20;;;;;;;0.10;0.10;;;9.60;99.90;;;;;;5058256;28;20167;-70
2023/12/25 08:34:45;;;;;;;0.10;0.10;;;9.80;99.90;;;;;;5057942;28;20049;-70
2023/12/25 08:37:11;;;;;;;0.20;0.20;;;9.80;99.90;;;;;;5057859;28;20045;-70
2023/12/25 08:39:37;;;;;;;0.10;0.10;;;9.70;99.90;;;;;;5059439;28;20522;-70
2023/12/25 08:42:04;;;;;;;0.10;0.10;;;9.70;99.90;;;;;;5057906;28;20052;-71
2023/12/25 08:44:32;;;;;;;0.10;0.10;;;10.10;99.90;;;;;;5058448;28;20120;-72
2023/12/25 08:46:58;;;;;;;1.00;0.68;;;9.50;99.90;;;;;;5058871;28;20059;-71
2023/12/25 08:49:24;;;;;;;0.10;0.10;;;9.70;99.90;;;;;;5044942;28;20045;-70
2023/12/25 08:51:50;;;;;;;;;;;9.70;99.90;;;;;;5065920;28;20065;-72
2023/12/25 08:54:17;;;;;;;0.30;0.30;;;9.60;99.90;;;;;;5080364;28;19936;-70
2023/12/25 08:56:42;;;;;;;0.50;0.50;;;9.40;99.90;;;;;;5038240;28;20045;-73
2023/12/25 08:59:09;;;;;;;1.02;0.80;;;9.40;99.90;;;;;;5040909;28;20543;-70
2023/12/25 09:01:34;;;;;;;0.73;0.73;;;9.50;99.90;;;;;;5045202;28;20053;-69
2023/12/25 09:04:00;;;;;;;0.25;0.25;;;9.50;99.90;;;;;;5056806;28;20045;-70
2023/12/25 09:06:26;;;;;;;0.20;0.20;;;9.50;99.90;;;;;;5057461;28;20054;-69
2023/12/25 09:08:52;;;;;;;2.92;0.40;;;9.60;99.90;;;;;;5056603;28;20048;-71
2023/12/25 09:11:18;;;;;;;0.10;0.10;;;9.30;99.90;;;;;;5057860;28;20063;-70
2023/12/25 09:13:44;;;;;;;0.40;0.40;;;9.50;99.90;;;;;;5053894;28;20041;-69
2023/12/25 09:16:10;;;;;;;0.10;0.10;;;9.10;99.90;;;;;;5059887;28;20053;-69
2023/12/25 09:18:36;;;;;;;0.30;0.20;;;9.70;99.90;;;;;;5031854;28;20056;-68
2023/12/25 09:21:02;;;;;;;2.20;1.00;;;9.50;99.90;;;;;;5065783;28;20045;-70
2023/12/25 09:23:28;;;;;;;0.10;0.10;;;9.50;99.90;;;;;;5064063;28;20124;-70
2023/12/25 09:25:54;;;;;;;0.30;0.30;;;9.40;99.90;;;;;;5066139;28;20413;-69
2023/12/25 09:28:20;;;;;;;0.50;0.50;;;9.60;99.90;;;;;;5050602;28;20045;-71
2023/12/25 09:30:46;;;;;;;0.22;0.22;;;9.50;99.90;;;;;;5054239;28;20053;-69
2023/12/25 09:33:12;;;;;;;0.10;0.10;;;9.50;99.90;;;;;;5052881;28;20052;-70
2023/12/25 09:35:38;;;;;;;0.30;0.30;;;9.40;99.90;;;;;;5054137;28;20091;-69
2023/12/25 09:38:04;;;;;;;0.40;0.38;;;10.00;99.90;;;;;;5053954;28;20053;-69
2023/12/25 09:40:32;;;;;;;0.10;0.10;;;9.90;99.90;;;;;;5060941;28;20048;-71
2023/12/25 09:42:59;;;;;;;0.13;0.13;;;9.80;99.90;;;;;;5069303;28;20044;-70
2023/12/25 09:45:31;;;;;;;4.30;0.80;;;9.80;99.90;;;;;;5049648;28;20063;-71
2023/12/25 09:47:57;;;;;;;0.20;0.20;;;9.80;99.90;;;;;;5045223;28;20045;-71
2023/12/25 09:50:23;;;;;;;0.70;0.65;;;9.70;99.90;;;;;;5059312;28;20140;-70
2023/12/25 09:52:49;;;;;;;0.10;0.10;;;9.40;99.90;;;;;;5057592;28;20130;-70
2023/12/25 09:55:14;;;;;;;0.75;0.57;;;9.80;99.90;;;;;;5061187;28;20040;-71
2023/12/25 09:57:43;;;;;;;14.38;0.73;;;9.70;99.90;;;;;;5057646;28;20102;-70
2023/12/25 10:00:09;;;;;;;2.90;0.30;;;9.90;99.90;;;;;;5057650;28;20053;-71
2023/12/25 10:02:37;;;;;;;0.32;0.32;;;9.60;99.90;;;;;;5063594;28;20131;-70
2023/12/25 10:05:05;;;;;;;0.10;0.10;;;8.40;99.90;;;;;;5071474;28;20044;-70
2023/12/25 10:07:31;;;;;;;0.10;0.10;;;9.80;99.90;;;;;;5052762;28;20060;-71
2023/12/25 10:09:58;;;;;;;0.25;0.25;;;10.20;99.90;;;;;;5064263;28;20068;-70
2023/12/25 10:12:25;;;;;;;0.10;0.10;;;9.80;99.90;;;;;;5053995;28;20465;-70
2023/12/25 10:14:51;;;;;;;0.10;0.10;;;10.00;99.90;;;;;;5067307;28;20411;-70
2023/12/25 10:17:17;;;;;;;0.22;0.22;;;;;;;;;;5071877;28;20052;-70
2023/12/25 10:19:52;;;;;;;;;;;9.90;99.90;;;;;;5070242;28;20047;-70
2023/12/25 10:22:32;;;;;;;1.75;0.65;;;9.80;99.90;;;;;;5103766;28;19924;-70
2023/12/25 10:25:11;;;;;;;2.40;1.48;;;9.90;99.90;;;;;;5048072;28;20040;-70
2023/12/25 10:27:39;;;;;;;0.47;0.47;;;10.10;99.90;;;;;;5086856;28;20048;-70
2023/12/25 10:30:21;;;;;;;0.10;0.10;;;10.00;99.90;;;;;;5072480;28;20127;-70
2023/12/25 10:32:48;;;;;;;0.45;0.45;;;10.10;99.90;;;;;;5070799;28;20511;-70
2023/12/25 10:35:18;;;;;;;0.30;0.30;;;9.90;99.90;;;;;;5071099;28;20163;-70
2023/12/25 10:37:48;;;;;;;0.13;0.13;;;10.00;99.90;;;;;;5070232;28;20495;-70
2023/12/25 10:40:25;;;;;;;0.85;0.85;;;9.90;99.90;;;;;;5070670;28;20055;-71
2023/12/25 10:42:53;;;;;;;0.40;0.40;;;10.20;99.90;;;;;;5063540;28;20048;-70
2023/12/25 10:45:26;;;;;;;0.20;0.20;;;10.10;99.90;;;;;;5051940;28;20057;-70
2023/12/25 10:48:02;;;;;;;4.20;0.40;;;9.70;99.90;;;;;;5051752;28;20060;-71
2023/12/25 10:50:34;;;;;;;0.30;0.30;;;10.40;99.90;;;;;;5066151;28;20091;-70
2023/12/25 10:53:01;;;;;;;0.25;0.25;;;10.50;99.90;;;;;;5051797;28;20060;-69
2023/12/25 10:55:33;;;;;;;0.10;0.10;;;10.30;99.90;;;;;;5051309;28;20489;-70
2023/12/25 10:57:59;;;;;;;0.10;0.10;;;10.40;99.90;;;;;;5051635;28;20144;-70
2023/12/25 11:00:25;;;;;;;;;;;10.20;99.90;;;;;;5051421;28;20386;-70
2023/12/25 11:02:53;;;;;;;4.97;0.77;;;10.20;99.90;;;;;;5034720;28;19921;-70
2023/12/25 11:05:21;;;;;;;0.10;0.10;;;10.00;99.90;;;;;;5052035;28;20291;-70
2023/12/25 11:07:48;;;;;;;0.32;0.32;;;10.30;99.90;;;;;;5052565;28;20049;-71
2023/12/25 11:10:14;;;;;;;0.30;0.30;;;10.10;99.90;;;;;;5052490;28;20408;-71
2023/12/25 11:12:40;;;;;;;0.55;0.55;;;10.10;99.90;;;;;;5052730;28;20048;-71
2023/12/25 11:15:06;;;;;;;0.10;0.10;;;10.50;99.90;;;;;;5052276;28;20049;-70
2023/12/25 11:17:35;;;;;;;0.30;0.30;;;10.40;99.90;;;;;;5052721;28;20080;-70
2023/12/25 11:20:04;;;;;;;0.40;0.40;;;10.10;99.90;;;;;;5040028;28;20155;-70
2023/12/25 11:22:33;;;;;;;0.35;0.35;;;10.20;99.90;;;;;;5052440;28;20056;-71
2023/12/25 11:25:02;;;;;;;0.17;0.17;;;10.30;99.90;;;;;;5052689;28;20037;-69
2023/12/25 11:27:29;;;;;;;0.22;0.22;;;10.20;99.90;;;;;;5084797;28;20111;-70
2023/12/25 11:30:02;;;;;;;0.63;0.63;;;10.30;99.90;;;;;;5052701;28;20110;-70
2023/12/25 11:32:28;;;;;;;0.60;0.55;;;10.40;99.90;;;;;;5034989;28;20063;-70
2023/12/25 11:34:56;;;;;;;2.83;1.65;;;10.30;99.90;;;;;;5052643;28;20103;-70
2023/12/25 11:37:23;;;;;;;0.20;0.20;;;10.10;99.90;;;;;;5052357;28;20052;-70
2023/12/25 11:39:59;;;;;;;0.40;0.40;;;10.30;99.90;;;;;;5052340;28;20056;-71
2023/12/25 11:42:26;;;;;;;3.13;1.90;;;10.30;99.90;;;;;;5084859;28;20068;-70
2023/12/25 11:44:58;;;;;;;3.85;0.43;;;10.60;99.90;;;;;;5052454;28;20044;-70
2023/12/25 11:47:28;;;;;;;0.10;0.10;;;10.40;99.90;;;;;;5057274;28;20044;-71
2023/12/25 11:49:56;;;;;;;0.20;0.20;;;10.20;99.90;;;;;;5070596;28;20047;-71
2023/12/25 11:52:46;;;;;;;0.10;0.10;;;10.10;99.90;;;;;;5071254;28;20040;-71
2023/12/25 11:55:23;;;;;;;0.32;0.32;;;10.10;99.90;;;;;;5067098;28;20043;-70
2023/12/25 11:57:51;;;;;;;0.28;0.28;;;10.10;99.90;;;;;;5095556;28;20044;-70
2023/12/25 12:00:18;;;;;;;0.10;0.10;;;10.20;99.90;;;;;;5065781;28;20069;-70
2023/12/25 12:02:44;;;;;;;0.10;0.10;;;10.30;99.90;;;;;;5063377;28;20063;-71
2023/12/25 12:05:11;;;;;;;0.10;0.10;;;10.00;99.90;;;;;;5051902;28;20049;-70
2023/12/25 12:07:37;;;;;;;0.10;0.10;;;10.00;99.90;;;;;;5051807;28;20084;-71
2023/12/25 12:10:04;;;;;;;0.10;0.10;;;10.50;99.90;;;;;;5051918;28;20520;-71
2023/12/25 12:12:29;;;;;;;0.30;0.30;;;10.50;99.90;;;;;;5052350;28;20057;-71
2023/12/25 12:14:56;;;;;;;0.20;0.20;;;10.20;99.90;;;;;;5052385;28;20127;-70
2023/12/25 12:17:21;;;;;;;;;;;10.30;99.90;;;;;;5051606;28;20103;-71
2023/12/25 12:19:48;;;;;;;0.25;0.25;;;10.10;99.90;;;;;;5051429;28;19925;-71
2023/12/25 12:22:17;;;;;;;0.10;0.10;;;10.40;99.90;;;;;;5051650;28;20049;-70
2023/12/25 12:24:44;;;;;;;0.08;0.08;;;10.20;99.90;;;;;;5053535;28;20451;-70
2023/12/25 12:27:11;;;;;;;;;;;10.60;99.90;;;;;;5053275;28;20111;-71
2023/12/25 12:29:38;;;;;;;0.10;0.10;;;10.50;99.90;;;;;;5052751;28;19928;-70
2023/12/25 12:32:04;;;;;;;;;;;10.40;99.90;;;;;;5035487;28;20049;-71
2023/12/25 12:34:29;;;;;;;0.57;0.57;;;10.80;99.90;;;;;;5051678;28;19971;-70
2023/12/25 12:37:00;;;;;;;0.20;0.20;;;10.40;99.90;;;;;;5085114;28;20037;-71
2023/12/25 12:39:30;;;;;;;0.13;0.13;;;10.30;99.90;;;;;;5055196;28;20443;-70
2023/12/25 12:41:57;;;;;;;1.98;0.55;;;10.30;99.90;;;;;;5055915;28;20049;-70
2023/12/25 12:44:23;;;;;;;0.10;0.10;;;10.30;99.90;;;;;;5054354;28;20073;-70
2023/12/25 12:46:50;;;;;;;0.10;0.10;;;10.30;99.90;;;;;;5054714;28;20060;-71
2023/12/25 12:49:17;;;;;;;0.10;0.10;;;10.30;99.90;;;;;;5055751;28;20103;-70